Nearby METAR Reports

 

KMTN - Baltimore/Martin, Maryland, USA
Distance from station: SSE 8mi, 13km
Updated: Fri, 30-Jan-2015 6:45am EST
Partly cloudy
Partly cloudy
 Wind from W
Wind: W 9 mph , 15 km/h
Temperature: 34°F , 1°C
Wind Chill: 27°F , -3°C
Dew Point: 28°F , -2°C
Humidity: 81%
Barometer: 29.96 inHg , 1014.6 hPa
Clouds: Partly cloudy
Visibility: 10 miles , 16 km
Cloud details: Partly cloudy 8500 ft
2015/01/30 11:45 KMTN 301145Z 27008KT 10SM SCT085 01/M02 A2996
KDMH - Baltimore/Dwntwn, Maryland, USA
Distance from station: SW 12mi, 19km
Updated: Fri, 30-Jan-2015 6:54am EST

 
Temperature: 37°F , 3°C
Dew Point: 27°F , -3°C
Humidity: 65%
Barometer: 29.96 inHg , 1014.6 hPa
2015/01/30 11:54 KDMH 301154Z AUTO 03/M03 A2996 RMK AO1 SLP144 70004 T00281033 10033 20017 53016
 
KBWI - Balto/Wash Intl, Maryland, USA
Distance from station: SSW 20mi, 33km
Updated: Fri, 30-Jan-2015 6:54am EST
Partly cloudy
Partly cloudy
 Wind from WNW
Wind: WNW 7 mph , 11 km/h
Temperature: 34°F , 1°C
Wind Chill: 28°F , -2°C
Dew Point: 27°F , -3°C
Humidity: 75%
Barometer: 29.95 inHg , 1014.2 hPa
Clouds: Partly cloudy
Visibility: 10 miles , 16 km
Cloud details: Few Clouds 4500 ft
Partly cloudy 9000 ft
2015/01/30 11:54 KBWI 301154Z 29006KT 10SM FEW045 SCT090 01/M03 A2995 RMK AO2 SLP144 70007 T00111033 10028 21006 53017
KDMW - Carroll Cnty, Maryland, USA
Distance from station: WNW 30mi, 48km
Updated: Fri, 30-Jan-2015 7:10am EST
Partly cloudy
Partly cloudy
 Wind from WNW
Wind: WNW 8 mph , 13 km/h, Gust: 16 mph , 26 km/h
Temperature: 32°F , 0°C
Wind Chill: 25°F , -4°C
Dew Point: 23°F , -5°C
Humidity: 69%
Barometer: 29.94 inHg , 1013.9 hPa
Clouds: Partly cloudy
Visibility: 10 miles , 16 km
Cloud details: Partly cloudy 6500 ft
Partly cloudy 7500 ft
2015/01/30 12:10 KDMW 301210Z AUTO 29007G14KT 10SM SCT065 SCT075 00/M05 A2994 RMK AO2
 
KNAK - Annapolis/Naval, Maryland, USA
Distance from station: S 30mi, 48km
Updated: Fri, 30-Jan-2015 6:54am EST
Mostly cloudy
Mostly cloudy
 Wind from WNW
Wind: WNW 9 mph , 15 km/h
Temperature: 37°F , 3°C
Wind Chill: 30°F , -1°C
Dew Point: 27°F , -3°C
Humidity: 65%
Barometer: 29.95 inHg , 1014.2 hPa
Clouds: Mostly cloudy
Visibility: 10 miles , 16 km
Cloud details: Mostly cloudy 9500 ft
2015/01/30 11:54 KNAK 301154Z AUTO 29008KT 10SM BKN095 03/M03 A2995 RMK AO2 SLP144 70005 T00331028 10039 20017 53016
KW29 - Stevensville, Maryland, USA
Distance from station: SSE 31mi, 50km
Updated: Fri, 30-Jan-2015 7:09am EST

 Wind from WNW
Wind: WNW 13 mph , 20 km/h, Gust: 20 mph , 31 km/h
Temperature: 37°F , 3°C
Wind Chill: 29°F , -2°C
Dew Point: 28°F , -2°C
Humidity: 70%
Barometer: 29.95 inHg , 1014.2 hPa
Visibility: 10 miles , 16 km
2015/01/30 12:09 KW29 301209Z AUTO 30011G17KT 10SM 03/M02 A2995 RMK AO1
 
KCGS - College Park, Maryland, USA
Distance from station: SW 38mi, 61km
Updated: Fri, 30-Jan-2015 7:05am EST
Clear
Clear
 Wind from NW
Wind: NW 6 mph , 9 km/h
Temperature: 37°F , 3°C
Wind Chill: 32°F , 0°C
Dew Point: 27°F , -3°C
Humidity: 65%
Barometer: 29.98 inHg , 1015.2 hPa
Clouds: Clear
Visibility: 10 miles , 16 km
2015/01/30 12:05 KCGS 301205Z AUTO 32005KT 10SM CLR 03/M03 A2998 RMK AO1
KGAI - Gaithersburg, Maryland, USA
Distance from station: WSW 40mi, 65km
Updated: Fri, 30-Jan-2015 7:15am EST
Partly cloudy
Partly cloudy
 Wind from WNW
Wind: WNW 17 mph , 28 km/h, Gust: 21 mph , 33 km/h
Temperature: 34°F , 1°C
Wind Chill: 23°F , -5°C
Dew Point: 21°F , -6°C
Humidity: 60%
Barometer: 30.00 inHg , 1015.9 hPa
Clouds: Partly cloudy
Visibility: 10 miles , 16 km
Cloud details: Partly cloudy 8000 ft
2015/01/30 12:15 KGAI 301215Z 30015G18KT 10SM SCT080 01/M06 A3000 RMK AO1
 
KTHV - York, Pennsylvania, USA
Distance from station: NNW 40mi, 65km
Updated: Fri, 30-Jan-2015 6:53am EST
Overcast
Overcast
 Wind from WNW
Wind: WNW 10 mph , 17 km/h
Temperature: 34°F , 1°C
Wind Chill: 26°F , -3°C
Dew Point: 25°F , -4°C
Humidity: 70%
Barometer: 29.93 inHg , 1013.5 hPa
Clouds: Overcast
Visibility: 10 miles , 16 km
Cloud details: Mostly cloudy 6500 ft
Overcast 9000 ft
2015/01/30 11:53 KTHV 301153Z AUTO 29009KT 10SM BKN065 OVC090 01/M04 A2993 RMK AO2 SLP143 T00111044 10011 21017 53013
KFDK - Frederick, Maryland, USA
Distance from station: W 47mi, 75km
Updated: Fri, 30-Jan-2015 6:45am EST
Mostly cloudy
Mostly cloudy
 Wind from NW
Wind: NW 12 mph , 19 km/h, Gust: 23 mph , 37 km/h
Temperature: 37°F , 3°C
Wind Chill: 29°F , -2°C
Dew Point: 21°F , -6°C
Humidity: 52%
Barometer: 30.01 inHg , 1016.3 hPa
Clouds: Mostly cloudy
Visibility: 10 miles , 16 km
Cloud details: Partly cloudy 4200 ft
Mostly cloudy 9000 ft
2015/01/30 11:45 KFDK 301145Z 32010G20KT 10SM SCT042 BKN090 03/M06 A3001
 
KESN - Easton/Newnam, Maryland, USA
Distance from station: SSE 48mi, 78km
Updated: Fri, 30-Jan-2015 6:55am EST
Overcast
Overcast
 Wind from NW
Wind: NW 10 mph , 17 km/h
Temperature: 39°F , 4°C
Wind Chill: 32°F , 0°C
Dew Point: 30°F , -1°C
Humidity: 70%
Barometer: 29.97 inHg , 1014.9 hPa
Clouds: Overcast
Visibility: 10 miles , 16 km
Cloud details: Overcast 7500 ft
2015/01/30 11:55 KESN 301155Z 32009KT 10SM OVC075 04/M01 A2997
KDCA - Washington/Natl, Washington D.c., USA
Distance from station: SW 49mi, 79km
Updated: Fri, 30-Jan-2015 6:52am EST
Partly cloudy
Partly cloudy
 Wind from NW
Wind: NW 15 mph , 24 km/h, Gust: 28 mph , 44 km/h
Temperature: 39°F , 4°C
Wind Chill: 31°F , -1°C
Dew Point: 23°F , -5°C
Humidity: 52%
Barometer: 29.99 inHg , 1015.6 hPa
Clouds: Partly cloudy
Visibility: 10 miles , 16 km
Cloud details: Few Clouds 6000 ft
Partly cloudy 10000 ft
2015/01/30 11:52 KDCA 301152Z 32013G24KT 10SM FEW060 SCT100 04/M05 A2999 RMK AO2 SLP154 ACSL NW 70005 T00441050 10056 20033 53020 $
 
KLNS - Lancaster, Pennsylvania, USA
Distance from station: N 49mi, 79km
Updated: Fri, 30-Jan-2015 7:18am EST
Light snow, Mist, Overcast
Light snow, Mist, Overcast
 Wind from WNW
Wind: WNW 10 mph , 17 km/h
Temperature: 30°F , -1°C
Wind Chill: 21°F , -6°C
Dew Point: 27°F , -3°C
Humidity: 86%
Barometer: 29.92 inHg , 1013.2 hPa
Summary: Light snow, Mist
Clouds: Overcast
Visibility: 1 1/4 miles , 2 km
Cloud details: Overcast 2100 ft
2015/01/30 12:18 KLNS 301218Z 29009KT 1 1/4SM -SN BR OVC021 M01/M03 A2992 RMK AO2 P0000 T10111028
KILG - Wilmington, Delaware, USA
Distance from station: ENE 50mi, 81km
Updated: Fri, 30-Jan-2015 6:51am EST
Overcast
Overcast
 Wind from WNW
Wind: WNW 18 mph , 30 km/h, Gust: 24 mph , 39 km/h
Temperature: 36°F , 2°C
Wind Chill: 26°F , -3°C
Dew Point: 25°F , -4°C
Humidity: 65%
Barometer: 29.91 inHg , 1012.9 hPa
Clouds: Overcast
Visibility: 10 miles , 16 km
Cloud details: Few Clouds 8000 ft
Overcast 9000 ft
2015/01/30 11:51 KILG 301151Z AUTO 30016G21KT 10SM FEW080 OVC090 02/M04 A2991 RMK AO2 SLP131 T00171039 10022 20000 53009